sensor_id;sensor_type;location;lat;lon;timestamp;temperature;humidity
27413;DHT22;14871;52.702;5.230;2023-09-19T00:00:46;17.00;99.90
27413;DHT22;14871;52.702;5.230;2023-09-19T00:03:15;16.90;99.90
27413;DHT22;14871;52.702;5.230;2023-09-19T00:05:41;16.90;99.90
27413;DHT22;14871;52.702;5.230;2023-09-19T00:08:10;17.00;99.90
27413;DHT22;14871;52.702;5.230;2023-09-19T00:10:36;16.90;99.90
27413;DHT22;14871;52.702;5.230;2023-09-19T00:13:03;16.80;99.90
27413;DHT22;14871;52.702;5.230;2023-09-19T00:15:40;16.90;99.90
27413;DHT22;14871;52.702;5.230;2023-09-19T00:18:07;16.90;99.90
27413;DHT22;14871;52.702;5.230;2023-09-19T00:20:35;16.80;99.90
27413;DHT22;14871;52.702;5.230;2023-09-19T00:23:01;16.90;99.90
27413;DHT22;14871;52.702;5.230;2023-09-19T00:25:35;17.00;99.90
27413;DHT22;14871;52.702;5.230;2023-09-19T00:28:01;17.00;99.90
27413;DHT22;14871;52.702;5.230;2023-09-19T00:30:27;16.90;99.90
27413;DHT22;14871;52.702;5.230;2023-09-19T00:32:52;16.90;99.90
27413;DHT22;14871;52.702;5.230;2023-09-19T00:35:18;16.90;99.90
27413;DHT22;14871;52.702;5.230;2023-09-19T00:37:49;16.90;99.90
27413;DHT22;14871;52.702;5.230;2023-09-19T00:40:15;16.80;99.90
27413;DHT22;14871;52.702;5.230;2023-09-19T00:42:42;16.80;99.90
27413;DHT22;14871;52.702;5.230;2023-09-19T00:45:09;16.80;99.90
27413;DHT22;14871;52.702;5.230;2023-09-19T00:47:43;16.70;99.90
27413;DHT22;14871;52.702;5.230;2023-09-19T00:50:09;16.80;99.90
27413;DHT22;14871;52.702;5.230;2023-09-19T00:52:39;16.70;99.90
27413;DHT22;14871;52.702;5.230;2023-09-19T00:55:07;16.80;99.90
27413;DHT22;14871;52.702;5.230;2023-09-19T00:57:35;16.80;99.90
27413;DHT22;14871;52.702;5.230;2023-09-19T01:00:02;16.70;99.90
27413;DHT22;14871;52.702;5.230;2023-09-19T01:02:32;16.80;99.90
27413;DHT22;14871;52.702;5.230;2023-09-19T01:04:58;16.90;99.90
27413;DHT22;14871;52.702;5.230;2023-09-19T01:07:25;16.90;99.90
27413;DHT22;14871;52.702;5.230;2023-09-19T01:09:51;16.80;99.90
27413;DHT22;14871;52.702;5.230;2023-09-19T01:12:43;16.70;99.90
27413;DHT22;14871;52.702;5.230;2023-09-19T01:21:15;16.70;99.90
27413;DHT22;14871;52.702;5.230;2023-09-19T01:24:13;16.70;99.90
27413;DHT22;14871;52.702;5.230;2023-09-19T01:29:42;16.60;99.90
27413;DHT22;14871;52.702;5.230;2023-09-19T01:32:11;16.60;99.90
27413;DHT22;14871;52.702;5.230;2023-09-19T01:34:48;16.80;99.90
27413;DHT22;14871;52.702;5.230;2023-09-19T01:37:18;16.70;99.90
27413;DHT22;14871;52.702;5.230;2023-09-19T01:39:51;16.70;99.90
27413;DHT22;14871;52.702;5.230;2023-09-19T01:42:31;16.80;99.90
27413;DHT22;14871;52.702;5.230;2023-09-19T01:45:14;16.70;99.90
27413;DHT22;14871;52.702;5.230;2023-09-19T01:47:51;16.80;99.90
27413;DHT22;14871;52.702;5.230;2023-09-19T01:52:56;16.80;99.90
27413;DHT22;14871;52.702;5.230;2023-09-19T01:55:23;16.80;99.90
27413;DHT22;14871;52.702;5.230;2023-09-19T01:58:04;16.90;99.90
27413;DHT22;14871;52.702;5.230;2023-09-19T02:00:33;17.00;99.90
27413;DHT22;14871;52.702;5.230;2023-09-19T02:03:02;16.90;99.90
27413;DHT22;14871;52.702;5.230;2023-09-19T02:05:28;16.80;99.90
27413;DHT22;14871;52.702;5.230;2023-09-19T02:07:54;16.90;99.90
27413;DHT22;14871;52.702;5.230;2023-09-19T02:10:21;16.80;99.90
27413;DHT22;14871;52.702;5.230;2023-09-19T02:12:46;16.90;99.90
27413;DHT22;14871;52.702;5.230;2023-09-19T02:15:12;16.90;99.90
27413;DHT22;14871;52.702;5.230;2023-09-19T02:17:38;16.80;99.90
27413;DHT22;14871;52.702;5.230;2023-09-19T02:20:04;16.80;99.90
27413;DHT22;14871;52.702;5.230;2023-09-19T02:22:36;16.80;99.90
27413;DHT22;14871;52.702;5.230;2023-09-19T02:25:02;16.80;99.90
27413;DHT22;14871;52.702;5.230;2023-09-19T02:27:30;16.80;99.90
27413;DHT22;14871;52.702;5.230;2023-09-19T02:29:56;16.80;99.90
27413;DHT22;14871;52.702;5.230;2023-09-19T02:32:22;16.90;99.90
27413;DHT22;14871;52.702;5.230;2023-09-19T02:34:48;16.90;99.90
27413;DHT22;14871;52.702;5.230;2023-09-19T02:37:14;16.90;99.90
27413;DHT22;14871;52.702;5.230;2023-09-19T02:39:41;16.80;99.90
27413;DHT22;14871;52.702;5.230;2023-09-19T02:42:07;16.80;99.90
27413;DHT22;14871;52.702;5.230;2023-09-19T02:44:33;17.00;99.90
27413;DHT22;14871;52.702;5.230;2023-09-19T02:46:59;16.80;99.90
27413;DHT22;14871;52.702;5.230;2023-09-19T02:49:25;16.90;99.90
27413;DHT22;14871;52.702;5.230;2023-09-19T02:51:50;16.80;99.90
27413;DHT22;14871;52.702;5.230;2023-09-19T02:54:17;16.90;99.90
27413;DHT22;14871;52.702;5.230;2023-09-19T02:56:43;16.80;99.90
27413;DHT22;14871;52.702;5.230;2023-09-19T02:59:09;17.00;99.90
27413;DHT22;14871;52.702;5.230;2023-09-19T03:01:36;16.90;99.90
27413;DHT22;14871;52.702;5.230;2023-09-19T03:04:03;16.90;99.90
27413;DHT22;14871;52.702;5.230;2023-09-19T03:06:31;16.90;99.90
27413;DHT22;14871;52.702;5.230;2023-09-19T03:08:57;16.90;99.90
27413;DHT22;14871;52.702;5.230;2023-09-19T03:11:25;17.00;99.90
27413;DHT22;14871;52.702;5.230;2023-09-19T03:13:54;16.90;99.90
27413;DHT22;14871;52.702;5.230;2023-09-19T03:16:20;17.00;99.90
27413;DHT22;14871;52.702;5.230;2023-09-19T03:18:47;16.80;99.90
27413;DHT22;14871;52.702;5.230;2023-09-19T03:21:15;16.70;99.90
27413;DHT22;14871;52.702;5.230;2023-09-19T03:23:40;16.80;99.90
27413;DHT22;14871;52.702;5.230;2023-09-19T03:26:06;16.80;99.90
27413;DHT22;14871;52.702;5.230;2023-09-19T03:28:33;16.90;99.90
27413;DHT22;14871;52.702;5.230;2023-09-19T03:31:04;16.90;99.90
27413;DHT22;14871;52.702;5.230;2023-09-19T03:33:30;16.90;99.90
27413;DHT22;14871;52.702;5.230;2023-09-19T03:35:59;17.10;99.90
27413;DHT22;14871;52.702;5.230;2023-09-19T03:38:26;16.90;99.90
27413;DHT22;14871;52.702;5.230;2023-09-19T03:40:53;17.00;99.90
27413;DHT22;14871;52.702;5.230;2023-09-19T03:43:18;16.90;99.90
27413;DHT22;14871;52.702;5.230;2023-09-19T03:45:44;17.00;99.90
27413;DHT22;14871;52.702;5.230;2023-09-19T03:48:12;16.90;99.90
27413;DHT22;14871;52.702;5.230;2023-09-19T03:50:38;16.80;99.90
27413;DHT22;14871;52.702;5.230;2023-09-19T03:53:04;16.90;99.90
27413;DHT22;14871;52.702;5.230;2023-09-19T03:55:29;16.80;99.90
27413;DHT22;14871;52.702;5.230;2023-09-19T03:57:56;16.80;99.90
27413;DHT22;14871;52.702;5.230;2023-09-19T04:00:22;16.80;99.90
27413;DHT22;14871;52.702;5.230;2023-09-19T04:02:51;16.70;99.90
27413;DHT22;14871;52.702;5.230;2023-09-19T04:05:17;16.60;99.90
27413;DHT22;14871;52.702;5.230;2023-09-19T04:07:42;16.60;99.90
27413;DHT22;14871;52.702;5.230;2023-09-19T04:10:08;16.70;99.90
27413;DHT22;14871;52.702;5.230;2023-09-19T04:12:37;16.70;99.90
27413;DHT22;14871;52.702;5.230;2023-09-19T04:15:03;16.60;99.90
27413;DHT22;14871;52.702;5.230;2023-09-19T04:17:28;16.70;99.90
27413;DHT22;14871;52.702;5.230;2023-09-19T04:19:54;16.60;99.90
27413;DHT22;14871;52.702;5.230;2023-09-19T04:22:20;16.60;99.90
27413;DHT22;14871;52.702;5.230;2023-09-19T04:24:45;16.50;99.90
27413;DHT22;14871;52.702;5.230;2023-09-19T04:27:11;16.60;99.90
27413;DHT22;14871;52.702;5.230;2023-09-19T04:29:39;16.70;99.90
27413;DHT22;14871;52.702;5.230;2023-09-19T04:32:07;16.70;99.90
27413;DHT22;14871;52.702;5.230;2023-09-19T04:34:33;16.60;99.90
27413;DHT22;14871;52.702;5.230;2023-09-19T04:37:00;16.60;99.90
27413;DHT22;14871;52.702;5.230;2023-09-19T04:39:26;16.60;99.90
27413;DHT22;14871;52.702;5.230;2023-09-19T04:41:52;16.60;99.90
27413;DHT22;14871;52.702;5.230;2023-09-19T04:44:18;16.70;99.90
27413;DHT22;14871;52.702;5.230;2023-09-19T04:46:44;16.60;99.90
27413;DHT22;14871;52.702;5.230;2023-09-19T04:49:12;16.60;99.90
27413;DHT22;14871;52.702;5.230;2023-09-19T04:51:38;16.60;99.90
27413;DHT22;14871;52.702;5.230;2023-09-19T04:54:04;16.70;99.90
27413;DHT22;14871;52.702;5.230;2023-09-19T04:56:29;16.50;99.90
27413;DHT22;14871;52.702;5.230;2023-09-19T04:58:55;16.70;99.90
27413;DHT22;14871;52.702;5.230;2023-09-19T05:01:21;16.60;99.90
27413;DHT22;14871;52.702;5.230;2023-09-19T05:03:47;16.60;99.90
27413;DHT22;14871;52.702;5.230;2023-09-19T05:06:18;16.60;99.90
27413;DHT22;14871;52.702;5.230;2023-09-19T05:08:43;16.60;99.90
27413;DHT22;14871;52.702;5.230;2023-09-19T05:11:09;16.60;99.90
27413;DHT22;14871;52.702;5.230;2023-09-19T05:13:35;16.50;99.90
27413;DHT22;14871;52.702;5.230;2023-09-19T05:16:00;16.60;99.90
27413;DHT22;14871;52.702;5.230;2023-09-19T05:18:29;16.80;99.90
27413;DHT22;14871;52.702;5.230;2023-09-19T05:20:55;16.70;99.90
27413;DHT22;14871;52.702;5.230;2023-09-19T05:23:21;16.60;99.90
27413;DHT22;14871;52.702;5.230;2023-09-19T05:25:47;16.60;99.90
27413;DHT22;14871;52.702;5.230;2023-09-19T05:28:12;16.60;99.90
27413;DHT22;14871;52.702;5.230;2023-09-19T05:30:40;16.60;99.90
27413;DHT22;14871;52.702;5.230;2023-09-19T05:33:07;16.70;99.90
27413;DHT22;14871;52.702;5.230;2023-09-19T05:35:33;16.70;99.90
27413;DHT22;14871;52.702;5.230;2023-09-19T05:37:59;16.70;99.90
27413;DHT22;14871;52.702;5.230;2023-09-19T05:40:25;16.70;99.90
27413;DHT22;14871;52.702;5.230;2023-09-19T05:42:51;16.60;99.90
27413;DHT22;14871;52.702;5.230;2023-09-19T05:45:17;16.80;99.90
27413;DHT22;14871;52.702;5.230;2023-09-19T05:47:48;16.70;99.90
27413;DHT22;14871;52.702;5.230;2023-09-19T05:50:14;16.80;99.90
27413;DHT22;14871;52.702;5.230;2023-09-19T05:52:42;16.70;99.90
27413;DHT22;14871;52.702;5.230;2023-09-19T05:55:10;16.80;99.90
27413;DHT22;14871;52.702;5.230;2023-09-19T05:57:37;16.80;99.90
27413;DHT22;14871;52.702;5.230;2023-09-19T06:00:08;16.90;99.90
27413;DHT22;14871;52.702;5.230;2023-09-19T06:02:37;17.10;99.90
27413;DHT22;14871;52.702;5.230;2023-09-19T06:05:04;17.10;99.90
27413;DHT22;14871;52.702;5.230;2023-09-19T06:07:32;17.00;99.90
27413;DHT22;14871;52.702;5.230;2023-09-19T06:10:05;17.00;99.90
27413;DHT22;14871;52.702;5.230;2023-09-19T06:12:32;17.00;99.90
27413;DHT22;14871;52.702;5.230;2023-09-19T06:15:00;16.90;99.90
27413;DHT22;14871;52.702;5.230;2023-09-19T06:17:26;17.00;99.90
27413;DHT22;14871;52.702;5.230;2023-09-19T06:19:53;17.10;99.90
27413;DHT22;14871;52.702;5.230;2023-09-19T06:22:21;17.10;99.90
27413;DHT22;14871;52.702;5.230;2023-09-19T06:24:47;17.20;99.90
27413;DHT22;14871;52.702;5.230;2023-09-19T06:27:13;17.00;99.90
27413;DHT22;14871;52.702;5.230;2023-09-19T06:29:39;17.00;99.90
27413;DHT22;14871;52.702;5.230;2023-09-19T06:32:10;17.10;99.90
27413;DHT22;14871;52.702;5.230;2023-09-19T06:34:36;17.30;99.90
27413;DHT22;14871;52.702;5.230;2023-09-19T06:37:04;17.30;99.90
27413;DHT22;14871;52.702;5.230;2023-09-19T06:39:31;17.30;99.90
27413;DHT22;14871;52.702;5.230;2023-09-19T06:41:57;17.40;99.90
27413;DHT22;14871;52.702;5.230;2023-09-19T06:44:23;17.50;99.90
27413;DHT22;14871;52.702;5.230;2023-09-19T06:46:50;17.50;99.90
27413;DHT22;14871;52.702;5.230;2023-09-19T06:49:17;17.40;99.90
27413;DHT22;14871;52.702;5.230;2023-09-19T06:51:43;17.40;99.90
27413;DHT22;14871;52.702;5.230;2023-09-19T06:54:09;17.40;99.90
27413;DHT22;14871;52.702;5.230;2023-09-19T06:56:35;17.40;99.90
27413;DHT22;14871;52.702;5.230;2023-09-19T06:59:01;17.60;99.90
27413;DHT22;14871;52.702;5.230;2023-09-19T07:01:28;17.30;99.90
27413;DHT22;14871;52.702;5.230;2023-09-19T07:03:53;17.60;99.90
27413;DHT22;14871;52.702;5.230;2023-09-19T07:06:20;17.60;99.90
27413;DHT22;14871;52.702;5.230;2023-09-19T07:08:45;17.70;99.90
27413;DHT22;14871;52.702;5.230;2023-09-19T07:11:11;17.60;99.90
27413;DHT22;14871;52.702;5.230;2023-09-19T07:13:37;17.80;99.90
27413;DHT22;14871;52.702;5.230;2023-09-19T07:16:04;18.00;99.90
27413;DHT22;14871;52.702;5.230;2023-09-19T07:18:29;17.90;99.90
27413;DHT22;14871;52.702;5.230;2023-09-19T07:20:58;18.00;99.90
27413;DHT22;14871;52.702;5.230;2023-09-19T07:23:30;18.10;99.90
27413;DHT22;14871;52.702;5.230;2023-09-19T07:26:00;18.20;99.90
27413;DHT22;14871;52.702;5.230;2023-09-19T07:28:26;18.20;99.90
27413;DHT22;14871;52.702;5.230;2023-09-19T07:30:53;18.30;99.90
27413;DHT22;14871;52.702;5.230;2023-09-19T07:33:19;18.30;99.90
27413;DHT22;14871;52.702;5.230;2023-09-19T07:35:48;18.20;99.90
27413;DHT22;14871;52.702;5.230;2023-09-19T07:38:13;18.50;99.90
27413;DHT22;14871;52.702;5.230;2023-09-19T07:40:39;18.70;99.90
27413;DHT22;14871;52.702;5.230;2023-09-19T07:43:05;18.50;99.90
27413;DHT22;14871;52.702;5.230;2023-09-19T07:45:32;18.50;99.90
27413;DHT22;14871;52.702;5.230;2023-09-19T07:47:58;18.50;99.90
27413;DHT22;14871;52.702;5.230;2023-09-19T07:50:24;18.70;99.90
27413;DHT22;14871;52.702;5.230;2023-09-19T07:52:52;18.80;99.90
27413;DHT22;14871;52.702;5.230;2023-09-19T07:55:18;19.10;99.90
27413;DHT22;14871;52.702;5.230;2023-09-19T07:57:46;19.00;99.90
27413;DHT22;14871;52.702;5.230;2023-09-19T08:00:12;19.20;99.90
27413;DHT22;14871;52.702;5.230;2023-09-19T08:02:39;19.10;99.90
27413;DHT22;14871;52.702;5.230;2023-09-19T08:05:07;19.30;99.90
27413;DHT22;14871;52.702;5.230;2023-09-19T08:07:39;19.20;99.90
27413;DHT22;14871;52.702;5.230;2023-09-19T08:10:06;19.30;99.90
27413;DHT22;14871;52.702;5.230;2023-09-19T08:12:36;19.40;99.90
27413;DHT22;14871;52.702;5.230;2023-09-19T08:15:03;19.60;99.90
27413;DHT22;14871;52.702;5.230;2023-09-19T08:17:29;20.00;99.90
27413;DHT22;14871;52.702;5.230;2023-09-19T08:19:54;19.90;99.90
27413;DHT22;14871;52.702;5.230;2023-09-19T08:22:20;19.80;99.90
27413;DHT22;14871;52.702;5.230;2023-09-19T08:24:47;19.90;99.90
27413;DHT22;14871;52.702;5.230;2023-09-19T08:27:13;20.10;99.90
27413;DHT22;14871;52.702;5.230;2023-09-19T08:29:39;20.40;99.90
27413;DHT22;14871;52.702;5.230;2023-09-19T08:32:04;20.40;99.90
27413;DHT22;14871;52.702;5.230;2023-09-19T08:34:30;20.40;99.90
27413;DHT22;14871;52.702;5.230;2023-09-19T08:36:59;20.40;99.90
27413;DHT22;14871;52.702;5.230;2023-09-19T08:39:25;20.40;99.90
27413;DHT22;14871;52.702;5.230;2023-09-19T08:41:58;20.40;99.90
27413;DHT22;14871;52.702;5.230;2023-09-19T08:44:25;20.30;99.90
27413;DHT22;14871;52.702;5.230;2023-09-19T08:46:54;20.30;99.90
27413;DHT22;14871;52.702;5.230;2023-09-19T08:49:27;20.10;99.90
27413;DHT22;14871;52.702;5.230;2023-09-19T08:52:27;20.20;99.90
27413;DHT22;14871;52.702;5.230;2023-09-19T08:54:51;20.10;99.90
27413;DHT22;14871;52.702;5.230;2023-09-19T08:57:19;20.00;99.90
27413;DHT22;14871;52.702;5.230;2023-09-19T08:59:48;20.10;99.90
27413;DHT22;14871;52.702;5.230;2023-09-19T09:02:16;20.10;99.90
27413;DHT22;14871;52.702;5.230;2023-09-19T09:04:45;20.20;99.90
27413;DHT22;14871;52.702;5.230;2023-09-19T09:07:12;19.90;99.90
27413;DHT22;14871;52.702;5.230;2023-09-19T09:09:42;19.90;99.90
27413;DHT22;14871;52.702;5.230;2023-09-19T09:12:13;20.00;99.90
27413;DHT22;14871;52.702;5.230;2023-09-19T09:14:47;20.00;99.90
27413;DHT22;14871;52.702;5.230;2023-09-19T09:17:16;19.80;99.90
27413;DHT22;14871;52.702;5.230;2023-09-19T09:19:48;20.00;99.90
27413;DHT22;14871;52.702;5.230;2023-09-19T09:22:14;19.90;99.90
27413;DHT22;14871;52.702;5.230;2023-09-19T09:25:00;20.10;99.90
27413;DHT22;14871;52.702;5.230;2023-09-19T09:27:30;20.20;99.90
27413;DHT22;14871;52.702;5.230;2023-09-19T09:29:57;20.30;99.90
27413;DHT22;14871;52.702;5.230;2023-09-19T09:32:27;20.40;99.90
27413;DHT22;14871;52.702;5.230;2023-09-19T09:35:00;20.40;99.90
27413;DHT22;14871;52.702;5.230;2023-09-19T09:37:27;20.30;99.90
27413;DHT22;14871;52.702;5.230;2023-09-19T09:40:01;20.40;99.90
27413;DHT22;14871;52.702;5.230;2023-09-19T09:42:42;20.20;99.90
27413;DHT22;14871;52.702;5.230;2023-09-19T09:47:47;20.10;99.90
27413;DHT22;14871;52.702;5.230;2023-09-19T09:50:26;20.00;99.90
27413;DHT22;14871;52.702;5.230;2023-09-19T09:52:55;20.00;99.90
27413;DHT22;14871;52.702;5.230;2023-09-19T09:56:09;19.80;99.90
27413;DHT22;14871;52.702;5.230;2023-09-19T09:58:49;19.80;99.90
27413;DHT22;14871;52.702;5.230;2023-09-19T10:01:15;19.90;99.90
27413;DHT22;14871;52.702;5.230;2023-09-19T10:03:42;19.90;99.90
27413;DHT22;14871;52.702;5.230;2023-09-19T10:06:15;20.00;99.90
27413;DHT22;14871;52.702;5.230;2023-09-19T10:09:05;20.40;99.90
27413;DHT22;14871;52.702;5.230;2023-09-19T10:11:43;20.40;99.90
27413;DHT22;14871;52.702;5.230;2023-09-19T10:14:11;20.30;99.90
27413;DHT22;14871;52.702;5.230;2023-09-19T10:16:46;20.20;99.90
27413;DHT22;14871;52.702;5.230;2023-09-19T10:19:30;20.00;99.90
27413;DHT22;14871;52.702;5.230;2023-09-19T10:22:01;19.90;99.90
27413;DHT22;14871;52.702;5.230;2023-09-19T10:24:28;19.80;99.90
27413;DHT22;14871;52.702;5.230;2023-09-19T10:26:55;19.70;99.90
27413;DHT22;14871;52.702;5.230;2023-09-19T10:29:21;20.10;99.90
27413;DHT22;14871;52.702;5.230;2023-09-19T10:31:52;20.00;99.90
27413;DHT22;14871;52.702;5.230;2023-09-19T10:34:19;20.20;99.90
27413;DHT22;14871;52.702;5.230;2023-09-19T10:36:46;20.70;99.90
27413;DHT22;14871;52.702;5.230;2023-09-19T10:39:16;20.60;99.90
27413;DHT22;14871;52.702;5.230;2023-09-19T10:41:50;20.40;99.90
27413;DHT22;14871;52.702;5.230;2023-09-19T10:44:32;20.20;99.90
27413;DHT22;14871;52.702;5.230;2023-09-19T10:46:58;20.40;99.90
27413;DHT22;14871;52.702;5.230;2023-09-19T10:49:24;20.30;99.90
27413;DHT22;14871;52.702;5.230;2023-09-19T10:51:54;20.30;99.90
27413;DHT22;14871;52.702;5.230;2023-09-19T10:54:26;20.70;99.90
27413;DHT22;14871;52.702;5.230;2023-09-19T10:56:54;20.40;99.90
27413;DHT22;14871;52.702;5.230;2023-09-19T10:59:22;20.30;99.90
27413;DHT22;14871;52.702;5.230;2023-09-19T11:01:54;20.20;99.90
27413;DHT22;14871;52.702;5.230;2023-09-19T11:07:11;20.30;99.90
27413;DHT22;14871;52.702;5.230;2023-09-19T11:09:50;20.30;99.90
27413;DHT22;14871;52.702;5.230;2023-09-19T11:15:07;20.00;99.90
27413;DHT22;14871;52.702;5.230;2023-09-19T11:17:40;20.20;99.90
27413;DHT22;14871;52.702;5.230;2023-09-19T11:30:32;20.00;99.90
27413;DHT22;14871;52.702;5.230;2023-09-19T11:33:26;19.80;99.90
27413;DHT22;14871;52.702;5.230;2023-09-19T11:36:12;19.80;99.90
27413;DHT22;14871;52.702;5.230;2023-09-19T11:43:47;19.80;99.90
27413;DHT22;14871;52.702;5.230;2023-09-19T11:46:13;20.30;99.90
27413;DHT22;14871;52.702;5.230;2023-09-19T11:48:43;20.30;99.90
27413;DHT22;14871;52.702;5.230;2023-09-19T11:51:19;20.30;99.90
27413;DHT22;14871;52.702;5.230;2023-09-19T11:53:58;20.40;99.90
27413;DHT22;14871;52.702;5.230;2023-09-19T11:56:28;20.60;99.90
27413;DHT22;14871;52.702;5.230;2023-09-19T11:58:55;20.60;99.90
27413;DHT22;14871;52.702;5.230;2023-09-19T12:01:23;20.70;99.90
27413;DHT22;14871;52.702;5.230;2023-09-19T12:03:53;20.30;99.90
27413;DHT22;14871;52.702;5.230;2023-09-19T12:06:20;20.10;99.90
27413;DHT22;14871;52.702;5.230;2023-09-19T12:08:47;20.10;99.90
27413;DHT22;14871;52.702;5.230;2023-09-19T12:11:14;20.20;99.90
27413;DHT22;14871;52.702;5.230;2023-09-19T12:13:42;20.20;99.90
27413;DHT22;14871;52.702;5.230;2023-09-19T12:16:16;20.10;99.90
27413;DHT22;14871;52.702;5.230;2023-09-19T12:18:45;20.00;99.90
27413;DHT22;14871;52.702;5.230;2023-09-19T12:24:06;19.60;99.90
27413;DHT22;14871;52.702;5.230;2023-09-19T12:26:43;19.70;99.90
27413;DHT22;14871;52.702;5.230;2023-09-19T12:29:20;19.80;99.90
27413;DHT22;14871;52.702;5.230;2023-09-19T12:31:53;19.60;99.90
27413;DHT22;14871;52.702;5.230;2023-09-19T12:34:26;19.80;99.90
27413;DHT22;14871;52.702;5.230;2023-09-19T12:40:02;19.80;99.90
27413;DHT22;14871;52.702;5.230;2023-09-19T12:42:39;19.80;99.90
27413;DHT22;14871;52.702;5.230;2023-09-19T12:45:07;19.90;99.90
27413;DHT22;14871;52.702;5.230;2023-09-19T12:47:35;19.90;99.90
27413;DHT22;14871;52.702;5.230;2023-09-19T12:50:14;20.00;99.90
27413;DHT22;14871;52.702;5.230;2023-09-19T12:52:47;20.10;99.90
27413;DHT22;14871;52.702;5.230;2023-09-19T12:55:27;20.00;99.90
27413;DHT22;14871;52.702;5.230;2023-09-19T12:57:56;20.30;99.90
27413;DHT22;14871;52.702;5.230;2023-09-19T13:05:52;21.00;99.90
27413;DHT22;14871;52.702;5.230;2023-09-19T13:08:27;20.90;99.90
27413;DHT22;14871;52.702;5.230;2023-09-19T13:11:10;21.10;99.90
27413;DHT22;14871;52.702;5.230;2023-09-19T13:14:17;21.10;99.90
27413;DHT22;14871;52.702;5.230;2023-09-19T13:17:04;20.90;99.90
27413;DHT22;14871;52.702;5.230;2023-09-19T13:19:50;20.90;99.90
27413;DHT22;14871;52.702;5.230;2023-09-19T13:22:45;20.90;99.90
27413;DHT22;14871;52.702;5.230;2023-09-19T13:25:23;20.80;99.90
27413;DHT22;14871;52.702;5.230;2023-09-19T13:27:54;20.80;99.90
27413;DHT22;14871;52.702;5.230;2023-09-19T13:30:31;20.80;99.90
27413;DHT22;14871;52.702;5.230;2023-09-19T13:33:10;20.60;99.90
27413;DHT22;14871;52.702;5.230;2023-09-19T13:35:38;20.70;99.90
27413;DHT22;14871;52.702;5.230;2023-09-19T13:38:05;20.50;99.90
27413;DHT22;14871;52.702;5.230;2023-09-19T13:40:35;20.40;99.90
27413;DHT22;14871;52.702;5.230;2023-09-19T13:43:03;20.50;99.90
27413;DHT22;14871;52.702;5.230;2023-09-19T13:45:29;20.60;99.90
27413;DHT22;14871;52.702;5.230;2023-09-19T13:47:56;20.50;99.90
27413;DHT22;14871;52.702;5.230;2023-09-19T13:50:22;20.60;99.90
27413;DHT22;14871;52.702;5.230;2023-09-19T13:52:54;20.60;99.90
27413;DHT22;14871;52.702;5.230;2023-09-19T13:55:20;20.60;99.90
27413;DHT22;14871;52.702;5.230;2023-09-19T13:57:47;20.50;99.90
27413;DHT22;14871;52.702;5.230;2023-09-19T14:00:20;20.40;99.90
27413;DHT22;14871;52.702;5.230;2023-09-19T14:02:46;20.60;99.90
27413;DHT22;14871;52.702;5.230;2023-09-19T14:05:14;20.50;99.90
27413;DHT22;14871;52.702;5.230;2023-09-19T14:07:42;20.50;99.90
27413;DHT22;14871;52.702;5.230;2023-09-19T14:10:09;20.50;99.90
27413;DHT22;14871;52.702;5.230;2023-09-19T14:12:36;20.50;99.90
27413;DHT22;14871;52.702;5.230;2023-09-19T14:15:03;20.40;99.90
27413;DHT22;14871;52.702;5.230;2023-09-19T14:17:29;20.60;99.90
27413;DHT22;14871;52.702;5.230;2023-09-19T14:19:55;20.50;99.90
27413;DHT22;14871;52.702;5.230;2023-09-19T14:22:20;20.60;99.90
27413;DHT22;14871;52.702;5.230;2023-09-19T14:24:47;20.70;99.90
27413;DHT22;14871;52.702;5.230;2023-09-19T14:27:13;20.60;99.90
27413;DHT22;14871;52.702;5.230;2023-09-19T14:29:38;20.50;99.90
27413;DHT22;14871;52.702;5.230;2023-09-19T14:32:05;20.60;99.90
27413;DHT22;14871;52.702;5.230;2023-09-19T14:34:31;20.50;99.90
27413;DHT22;14871;52.702;5.230;2023-09-19T14:36:57;20.60;99.90
27413;DHT22;14871;52.702;5.230;2023-09-19T14:39:22;20.60;99.90
27413;DHT22;14871;52.702;5.230;2023-09-19T14:41:48;20.50;99.90
27413;DHT22;14871;52.702;5.230;2023-09-19T14:44:14;20.40;99.90
27413;DHT22;14871;52.702;5.230;2023-09-19T14:46:41;20.50;99.90
27413;DHT22;14871;52.702;5.230;2023-09-19T14:49:08;20.40;99.90
27413;DHT22;14871;52.702;5.230;2023-09-19T14:51:36;20.40;99.90
27413;DHT22;14871;52.702;5.230;2023-09-19T14:54:03;20.40;99.90
27413;DHT22;14871;52.702;5.230;2023-09-19T14:56:29;20.50;99.90
27413;DHT22;14871;52.702;5.230;2023-09-19T14:58:56;20.40;99.90
27413;DHT22;14871;52.702;5.230;2023-09-19T15:01:22;20.30;99.90
27413;DHT22;14871;52.702;5.230;2023-09-19T15:03:48;20.10;99.90
27413;DHT22;14871;52.702;5.230;2023-09-19T15:06:15;20.00;99.90
27413;DHT22;14871;52.702;5.230;2023-09-19T15:08:44;20.10;99.90
27413;DHT22;14871;52.702;5.230;2023-09-19T15:11:16;20.00;99.90
27413;DHT22;14871;52.702;5.230;2023-09-19T15:13:43;19.80;99.90
27413;DHT22;14871;52.702;5.230;2023-09-19T15:16:10;19.80;99.90
27413;DHT22;14871;52.702;5.230;2023-09-19T15:18:37;19.50;99.90
27413;DHT22;14871;52.702;5.230;2023-09-19T15:21:04;19.50;99.90
27413;DHT22;14871;52.702;5.230;2023-09-19T15:23:30;19.40;99.90
27413;DHT22;14871;52.702;5.230;2023-09-19T15:26:00;19.20;99.90
27413;DHT22;14871;52.702;5.230;2023-09-19T15:28:26;19.20;99.90
27413;DHT22;14871;52.702;5.230;2023-09-19T15:31:10;19.20;99.90
27413;DHT22;14871;52.702;5.230;2023-09-19T15:33:37;19.00;99.90
27413;DHT22;14871;52.702;5.230;2023-09-19T15:36:06;18.70;99.90
27413;DHT22;14871;52.702;5.230;2023-09-19T15:41:34;18.50;99.90
27413;DHT22;14871;52.702;5.230;2023-09-19T15:44:02;18.70;99.90
27413;DHT22;14871;52.702;5.230;2023-09-19T15:46:30;18.80;99.90
27413;DHT22;14871;52.702;5.230;2023-09-19T15:48:56;18.50;99.90
27413;DHT22;14871;52.702;5.230;2023-09-19T15:51:22;18.70;99.90
27413;DHT22;14871;52.702;5.230;2023-09-19T15:53:49;18.70;99.90
27413;DHT22;14871;52.702;5.230;2023-09-19T15:56:16;18.80;99.90
27413;DHT22;14871;52.702;5.230;2023-09-19T15:58:44;18.70;99.90
27413;DHT22;14871;52.702;5.230;2023-09-19T16:01:11;18.80;99.90
27413;DHT22;14871;52.702;5.230;2023-09-19T16:03:44;18.90;99.90
27413;DHT22;14871;52.702;5.230;2023-09-19T16:06:11;18.70;99.90
27413;DHT22;14871;52.702;5.230;2023-09-19T16:08:41;18.70;99.90
27413;DHT22;14871;52.702;5.230;2023-09-19T16:11:08;18.80;99.90
27413;DHT22;14871;52.702;5.230;2023-09-19T16:13:38;18.70;99.90
27413;DHT22;14871;52.702;5.230;2023-09-19T16:16:04;18.60;99.90
27413;DHT22;14871;52.702;5.230;2023-09-19T16:18:30;18.80;99.90
27413;DHT22;14871;52.702;5.230;2023-09-19T16:21:04;18.70;99.90
27413;DHT22;14871;52.702;5.230;2023-09-19T16:23:30;18.70;99.90
27413;DHT22;14871;52.702;5.230;2023-09-19T16:26:04;18.70;99.90
27413;DHT22;14871;52.702;5.230;2023-09-19T16:28:34;18.90;99.90
27413;DHT22;14871;52.702;5.230;2023-09-19T16:31:05;18.70;99.90